Cable, WI (54821)

10:10 AM CST on January 26, 2015 (GMT -0600)
Namakagon Fire Dept | Change Station
CLOSE
Current Station
Personal Weather Station
Location: Cable, WI
Elevation: 1424 ft
Nearby Weather Stations

Elev 1424 ft 46.19 °N, 91.07 °W | Updated 1 second ago

Overcast
Overcast
17.4 °F
Feels Like 8 °F
N
6.9
Wind Variable Wind from SW
Gusts 6.9 mph

Today
High -- | Low -- °F
--% Chance of Precip.
Yesterday
High -- | Low -- °F
Precip. -- in
7:34 AM 5:00 PM
Waxing Crescent, 44% visible
Pressure 29.76 in
Visibility 0.8 miles
Clouds Mostly Cloudy 700 ft
Overcast 1200 ft
Windchill 8 °F
Dew Point 11 °F
Humidity 75%
Rainfall 0.00 in
Snow Depth Not available.
UV 0 out of 12
Pollen .10 out of 12
Air Quality Not available.
Flu Activity Not available.
METAR KHYR 261553Z AUTO 17006KT 3/4SM -SN BR BKN007 OVC012 M07/M08 A2969 RMK AO2 FZRAE15SNB32 SLP078 P0000 I1001 T10671083

More Conditions Fewer Conditions

Pressure 29.76 in
Visibility 0.8 miles
Clouds Mostly Cloudy 700 ft
Overcast 1200 ft
Windchill 8 °F
Dew Point 11 °F
Humidity 75%
Rainfall 0.00 in
Snow Depth Not available.
UV 0 out of 12
Pollen .10 out of 12
Air Quality Not available.
Flu Activity Not available.
METAR KHYR 261553Z AUTO 17006KT 3/4SM -SN BR BKN007 OVC012 M07/M08 A2969 RMK AO2 FZRAE15SNB32 SLP078 P0000 I1001 T10671083

More Conditions Fewer Conditions

10-Day Weather Forecast

Almanac

Astronomy

Jan. 26, 2015 Rise Set
Actual Time
Civil Twilight
Nautical Twilight
Astronomical Twilight
Moon
Length of Visible Light
Length of Day
Tomorrow will be .
, % of the Moon is Illuminated

Today's Extremes

State Highs State Lows

Community

WunderPhotos

Upload Photos

1,790,264 photos uploaded!

WunderBlogs® & News

Nearby

Air Quality

  Air Quality AQ Index Pollutant
Not available.

Snow Depth

Station Depth Elevation

Earthquake Activity

City Distance Mag. Time & Date
Minimum magnitude displayed is 2.5.

Coastal Water Temperatures

Place Temperature

Nearby Weather Stations